sensor_id;sensor_type;location;lat;lon;timestamp;P1;durP1;ratioP1;P2;durP2;ratioP2
51848;SDS011;38952;51.090;-1.832;2022-07-23T00:00:30;6.15;;;1.70;;
51848;SDS011;38952;51.090;-1.832;2022-07-23T00:02:56;6.25;;;2.25;;
51848;SDS011;38952;51.090;-1.832;2022-07-23T00:05:21;4.40;;;1.88;;
51848;SDS011;38952;51.090;-1.832;2022-07-23T00:07:47;7.70;;;2.25;;
51848;SDS011;38952;51.090;-1.832;2022-07-23T00:10:12;7.63;;;2.15;;
51848;SDS011;38952;51.090;-1.832;2022-07-23T00:12:38;4.00;;;1.92;;
51848;SDS011;38952;51.090;-1.832;2022-07-23T00:15:04;6.97;;;2.53;;
51848;SDS011;38952;51.090;-1.832;2022-07-23T00:17:31;6.60;;;2.20;;
51848;SDS011;38952;51.090;-1.832;2022-07-23T00:19:57;8.00;;;2.45;;
51848;SDS011;38952;51.090;-1.832;2022-07-23T00:22:22;7.75;;;2.30;;
51848;SDS011;38952;51.090;-1.832;2022-07-23T00:24:48;5.32;;;2.10;;
51848;SDS011;38952;51.090;-1.832;2022-07-23T00:27:13;7.13;;;1.90;;
51848;SDS011;38952;51.090;-1.832;2022-07-23T00:29:39;7.75;;;2.53;;
51848;SDS011;38952;51.090;-1.832;2022-07-23T00:32:04;5.25;;;2.10;;
51848;SDS011;38952;51.090;-1.832;2022-07-23T00:34:30;10.77;;;2.40;;
51848;SDS011;38952;51.090;-1.832;2022-07-23T00:36:55;8.63;;;2.33;;
51848;SDS011;38952;51.090;-1.832;2022-07-23T00:39:21;6.35;;;2.42;;
51848;SDS011;38952;51.090;-1.832;2022-07-23T00:41:47;7.47;;;2.05;;
51848;SDS011;38952;51.090;-1.832;2022-07-23T00:46:46;6.85;;;2.10;;
51848;SDS011;38952;51.090;-1.832;2022-07-23T00:49:14;10.55;;;2.20;;
51848;SDS011;38952;51.090;-1.832;2022-07-23T00:51:40;7.18;;;2.85;;
51848;SDS011;38952;51.090;-1.832;2022-07-23T00:54:06;6.60;;;2.05;;
51848;SDS011;38952;51.090;-1.832;2022-07-23T00:56:31;6.85;;;1.90;;
51848;SDS011;38952;51.090;-1.832;2022-07-23T00:58:57;7.30;;;2.33;;
51848;SDS011;38952;51.090;-1.832;2022-07-23T01:01:26;6.72;;;2.25;;
51848;SDS011;38952;51.090;-1.832;2022-07-23T01:03:51;8.68;;;2.20;;
51848;SDS011;38952;51.090;-1.832;2022-07-23T01:06:17;5.22;;;2.40;;
51848;SDS011;38952;51.090;-1.832;2022-07-23T01:08:42;4.40;;;2.25;;
51848;SDS011;38952;51.090;-1.832;2022-07-23T01:11:08;6.57;;;2.22;;
51848;SDS011;38952;51.090;-1.832;2022-07-23T01:13:33;6.68;;;2.40;;
51848;SDS011;38952;51.090;-1.832;2022-07-23T01:15:59;8.15;;;2.50;;
51848;SDS011;38952;51.090;-1.832;2022-07-23T01:18:24;5.38;;;2.67;;
51848;SDS011;38952;51.090;-1.832;2022-07-23T01:20:50;6.93;;;2.45;;
51848;SDS011;38952;51.090;-1.832;2022-07-23T01:23:15;4.88;;;2.58;;
51848;SDS011;38952;51.090;-1.832;2022-07-23T01:25:47;7.18;;;2.90;;
51848;SDS011;38952;51.090;-1.832;2022-07-23T01:28:14;11.40;;;3.13;;
51848;SDS011;38952;51.090;-1.832;2022-07-23T01:30:39;3.53;;;2.38;;
51848;SDS011;38952;51.090;-1.832;2022-07-23T01:33:05;9.95;;;2.95;;
51848;SDS011;38952;51.090;-1.832;2022-07-23T01:35:31;10.40;;;3.00;;
51848;SDS011;38952;51.090;-1.832;2022-07-23T01:37:56;13.38;;;3.15;;
51848;SDS011;38952;51.090;-1.832;2022-07-23T01:40:22;6.10;;;2.40;;
51848;SDS011;38952;51.090;-1.832;2022-07-23T01:42:47;7.90;;;2.45;;
51848;SDS011;38952;51.090;-1.832;2022-07-23T01:45:12;7.28;;;2.40;;
51848;SDS011;38952;51.090;-1.832;2022-07-23T01:47:38;10.05;;;3.08;;
51848;SDS011;38952;51.090;-1.832;2022-07-23T01:50:04;6.93;;;3.35;;
51848;SDS011;38952;51.090;-1.832;2022-07-23T01:52:29;5.65;;;2.80;;
51848;SDS011;38952;51.090;-1.832;2022-07-23T01:54:55;14.05;;;3.28;;
51848;SDS011;38952;51.090;-1.832;2022-07-23T01:57:20;7.97;;;2.58;;
51848;SDS011;38952;51.090;-1.832;2022-07-23T01:59:46;9.02;;;3.63;;
51848;SDS011;38952;51.090;-1.832;2022-07-23T02:02:11;7.20;;;3.13;;
51848;SDS011;38952;51.090;-1.832;2022-07-23T02:04:37;5.22;;;2.72;;
51848;SDS011;38952;51.090;-1.832;2022-07-23T02:07:02;4.88;;;2.58;;
51848;SDS011;38952;51.090;-1.832;2022-07-23T02:09:28;9.13;;;2.80;;
51848;SDS011;38952;51.090;-1.832;2022-07-23T02:11:54;5.10;;;2.30;;
51848;SDS011;38952;51.090;-1.832;2022-07-23T02:14:19;9.23;;;3.05;;
51848;SDS011;38952;51.090;-1.832;2022-07-23T02:16:45;10.80;;;2.38;;
51848;SDS011;38952;51.090;-1.832;2022-07-23T02:19:10;3.17;;;2.08;;
51848;SDS011;38952;51.090;-1.832;2022-07-23T02:21:36;4.00;;;2.20;;
51848;SDS011;38952;51.090;-1.832;2022-07-23T02:24:01;3.30;;;2.10;;
51848;SDS011;38952;51.090;-1.832;2022-07-23T02:26:27;4.22;;;2.17;;
51848;SDS011;38952;51.090;-1.832;2022-07-23T02:28:52;4.70;;;1.90;;
51848;SDS011;38952;51.090;-1.832;2022-07-23T02:31:20;5.35;;;2.25;;
51848;SDS011;38952;51.090;-1.832;2022-07-23T02:33:46;7.05;;;2.38;;
51848;SDS011;38952;51.090;-1.832;2022-07-23T02:36:11;4.70;;;2.30;;
51848;SDS011;38952;51.090;-1.832;2022-07-23T02:38:36;6.50;;;2.75;;
51848;SDS011;38952;51.090;-1.832;2022-07-23T02:41:02;11.73;;;2.75;;
51848;SDS011;38952;51.090;-1.832;2022-07-23T02:43:27;7.85;;;2.78;;
51848;SDS011;38952;51.090;-1.832;2022-07-23T02:45:53;12.50;;;2.45;;
51848;SDS011;38952;51.090;-1.832;2022-07-23T02:48:18;6.97;;;2.92;;
51848;SDS011;38952;51.090;-1.832;2022-07-23T02:50:43;7.53;;;3.05;;
51848;SDS011;38952;51.090;-1.832;2022-07-23T02:53:09;7.20;;;2.47;;
51848;SDS011;38952;51.090;-1.832;2022-07-23T02:55:34;10.75;;;2.83;;
51848;SDS011;38952;51.090;-1.832;2022-07-23T02:58:00;3.85;;;2.63;;
51848;SDS011;38952;51.090;-1.832;2022-07-23T03:00:25;3.97;;;2.20;;
51848;SDS011;38952;51.090;-1.832;2022-07-23T03:02:51;11.45;;;2.85;;
51848;SDS011;38952;51.090;-1.832;2022-07-23T03:05:16;7.70;;;2.85;;
51848;SDS011;38952;51.090;-1.832;2022-07-23T03:07:42;8.43;;;2.38;;
51848;SDS011;38952;51.090;-1.832;2022-07-23T03:10:08;6.93;;;2.92;;
51848;SDS011;38952;51.090;-1.832;2022-07-23T03:12:34;8.60;;;3.17;;
51848;SDS011;38952;51.090;-1.832;2022-07-23T03:14:59;4.35;;;2.50;;
51848;SDS011;38952;51.090;-1.832;2022-07-23T03:17:25;8.18;;;2.55;;
51848;SDS011;38952;51.090;-1.832;2022-07-23T03:19:50;5.70;;;2.58;;
51848;SDS011;38952;51.090;-1.832;2022-07-23T03:22:16;4.28;;;2.20;;
51848;SDS011;38952;51.090;-1.832;2022-07-23T03:24:41;6.82;;;2.50;;
51848;SDS011;38952;51.090;-1.832;2022-07-23T03:27:19;10.38;;;2.55;;
51848;SDS011;38952;51.090;-1.832;2022-07-23T03:29:49;5.18;;;2.35;;
51848;SDS011;38952;51.090;-1.832;2022-07-23T03:32:15;3.55;;;2.47;;
51848;SDS011;38952;51.090;-1.832;2022-07-23T03:34:40;8.02;;;2.55;;
51848;SDS011;38952;51.090;-1.832;2022-07-23T03:37:06;7.53;;;2.13;;
51848;SDS011;38952;51.090;-1.832;2022-07-23T03:39:31;4.18;;;2.17;;
51848;SDS011;38952;51.090;-1.832;2022-07-23T03:41:57;5.95;;;2.65;;
51848;SDS011;38952;51.090;-1.832;2022-07-23T03:44:22;3.80;;;2.55;;
51848;SDS011;38952;51.090;-1.832;2022-07-23T03:46:49;7.47;;;2.53;;
51848;SDS011;38952;51.090;-1.832;2022-07-23T03:49:14;3.80;;;2.45;;
51848;SDS011;38952;51.090;-1.832;2022-07-23T03:51:40;4.90;;;2.50;;
51848;SDS011;38952;51.090;-1.832;2022-07-23T03:54:05;8.95;;;3.10;;
51848;SDS011;38952;51.090;-1.832;2022-07-23T03:56:31;7.30;;;2.80;;
51848;SDS011;38952;51.090;-1.832;2022-07-23T03:58:56;4.80;;;2.42;;
51848;SDS011;38952;51.090;-1.832;2022-07-23T04:01:22;6.10;;;2.88;;
51848;SDS011;38952;51.090;-1.832;2022-07-23T04:03:47;10.02;;;3.13;;
51848;SDS011;38952;51.090;-1.832;2022-07-23T04:06:13;6.20;;;2.70;;
51848;SDS011;38952;51.090;-1.832;2022-07-23T04:08:38;9.00;;;2.90;;
51848;SDS011;38952;51.090;-1.832;2022-07-23T04:11:04;7.63;;;3.38;;
51848;SDS011;38952;51.090;-1.832;2022-07-23T04:13:29;5.80;;;3.05;;
51848;SDS011;38952;51.090;-1.832;2022-07-23T04:15:55;7.82;;;2.97;;
51848;SDS011;38952;51.090;-1.832;2022-07-23T04:18:20;10.02;;;2.90;;
51848;SDS011;38952;51.090;-1.832;2022-07-23T04:20:48;10.10;;;3.15;;
51848;SDS011;38952;51.090;-1.832;2022-07-23T04:23:15;3.05;;;2.45;;
51848;SDS011;38952;51.090;-1.832;2022-07-23T04:25:40;4.47;;;2.13;;
51848;SDS011;38952;51.090;-1.832;2022-07-23T04:28:06;6.65;;;2.20;;
51848;SDS011;38952;51.090;-1.832;2022-07-23T04:30:31;3.00;;;2.33;;
51848;SDS011;38952;51.090;-1.832;2022-07-23T04:32:57;4.72;;;2.63;;
51848;SDS011;38952;51.090;-1.832;2022-07-23T04:35:22;11.95;;;2.58;;
51848;SDS011;38952;51.090;-1.832;2022-07-23T04:37:48;13.57;;;2.65;;
51848;SDS011;38952;51.090;-1.832;2022-07-23T04:40:13;7.75;;;2.50;;
51848;SDS011;38952;51.090;-1.832;2022-07-23T04:42:39;4.35;;;2.72;;
51848;SDS011;38952;51.090;-1.832;2022-07-23T04:45:05;5.72;;;2.45;;
51848;SDS011;38952;51.090;-1.832;2022-07-23T04:47:31;6.13;;;2.83;;
51848;SDS011;38952;51.090;-1.832;2022-07-23T04:49:57;13.18;;;2.67;;
51848;SDS011;38952;51.090;-1.832;2022-07-23T04:52:23;5.90;;;2.63;;
51848;SDS011;38952;51.090;-1.832;2022-07-23T04:54:49;7.43;;;2.63;;
51848;SDS011;38952;51.090;-1.832;2022-07-23T04:57:15;11.75;;;2.83;;
51848;SDS011;38952;51.090;-1.832;2022-07-23T04:59:40;6.22;;;2.40;;
51848;SDS011;38952;51.090;-1.832;2022-07-23T05:02:06;5.25;;;2.30;;
51848;SDS011;38952;51.090;-1.832;2022-07-23T05:04:31;8.05;;;2.63;;
51848;SDS011;38952;51.090;-1.832;2022-07-23T05:06:57;5.18;;;2.15;;
51848;SDS011;38952;51.090;-1.832;2022-07-23T05:09:23;6.93;;;3.10;;
51848;SDS011;38952;51.090;-1.832;2022-07-23T05:11:49;4.45;;;2.63;;
51848;SDS011;38952;51.090;-1.832;2022-07-23T05:14:14;6.95;;;2.40;;
51848;SDS011;38952;51.090;-1.832;2022-07-23T05:16:40;6.43;;;2.40;;
51848;SDS011;38952;51.090;-1.832;2022-07-23T05:19:05;4.95;;;2.85;;
51848;SDS011;38952;51.090;-1.832;2022-07-23T05:21:31;7.05;;;2.65;;
51848;SDS011;38952;51.090;-1.832;2022-07-23T05:23:56;4.00;;;2.28;;
51848;SDS011;38952;51.090;-1.832;2022-07-23T05:26:22;6.22;;;3.15;;
51848;SDS011;38952;51.090;-1.832;2022-07-23T05:28:48;8.18;;;3.28;;
51848;SDS011;38952;51.090;-1.832;2022-07-23T05:31:13;5.35;;;3.03;;
51848;SDS011;38952;51.090;-1.832;2022-07-23T05:33:38;10.63;;;2.45;;
51848;SDS011;38952;51.090;-1.832;2022-07-23T05:36:04;4.25;;;2.40;;
51848;SDS011;38952;51.090;-1.832;2022-07-23T05:38:31;4.38;;;2.47;;
51848;SDS011;38952;51.090;-1.832;2022-07-23T05:40:57;5.53;;;3.05;;
51848;SDS011;38952;51.090;-1.832;2022-07-23T05:43:23;4.88;;;2.45;;
51848;SDS011;38952;51.090;-1.832;2022-07-23T05:45:48;7.45;;;2.50;;
51848;SDS011;38952;51.090;-1.832;2022-07-23T05:48:14;4.90;;;2.17;;
51848;SDS011;38952;51.090;-1.832;2022-07-23T05:50:39;5.07;;;2.53;;
51848;SDS011;38952;51.090;-1.832;2022-07-23T05:53:05;3.92;;;2.47;;
51848;SDS011;38952;51.090;-1.832;2022-07-23T05:55:30;4.75;;;2.20;;
51848;SDS011;38952;51.090;-1.832;2022-07-23T05:57:56;6.30;;;2.45;;
51848;SDS011;38952;51.090;-1.832;2022-07-23T06:00:22;6.53;;;2.20;;
51848;SDS011;38952;51.090;-1.832;2022-07-23T06:02:49;4.13;;;2.53;;
51848;SDS011;38952;51.090;-1.832;2022-07-23T06:05:15;4.97;;;2.47;;
51848;SDS011;38952;51.090;-1.832;2022-07-23T06:07:40;8.85;;;2.88;;
51848;SDS011;38952;51.090;-1.832;2022-07-23T06:10:06;5.78;;;2.60;;
51848;SDS011;38952;51.090;-1.832;2022-07-23T06:12:32;5.70;;;2.22;;
51848;SDS011;38952;51.090;-1.832;2022-07-23T06:14:58;3.42;;;2.08;;
51848;SDS011;38952;51.090;-1.832;2022-07-23T06:17:24;3.13;;;1.95;;
51848;SDS011;38952;51.090;-1.832;2022-07-23T06:19:50;4.60;;;1.85;;
51848;SDS011;38952;51.090;-1.832;2022-07-23T06:22:15;4.88;;;2.15;;
51848;SDS011;38952;51.090;-1.832;2022-07-23T06:24:40;3.45;;;2.00;;
51848;SDS011;38952;51.090;-1.832;2022-07-23T06:27:06;5.90;;;2.47;;
51848;SDS011;38952;51.090;-1.832;2022-07-23T06:29:31;4.30;;;2.30;;
51848;SDS011;38952;51.090;-1.832;2022-07-23T06:31:57;5.85;;;2.42;;
51848;SDS011;38952;51.090;-1.832;2022-07-23T06:34:22;9.32;;;2.72;;
51848;SDS011;38952;51.090;-1.832;2022-07-23T06:36:48;5.60;;;2.55;;
51848;SDS011;38952;51.090;-1.832;2022-07-23T06:39:13;5.90;;;2.33;;
51848;SDS011;38952;51.090;-1.832;2022-07-23T06:41:38;7.90;;;2.50;;
51848;SDS011;38952;51.090;-1.832;2022-07-23T06:44:04;3.75;;;2.15;;
51848;SDS011;38952;51.090;-1.832;2022-07-23T06:46:30;8.10;;;2.70;;
51848;SDS011;38952;51.090;-1.832;2022-07-23T06:48:55;3.25;;;2.15;;
51848;SDS011;38952;51.090;-1.832;2022-07-23T06:51:21;4.38;;;2.03;;
51848;SDS011;38952;51.090;-1.832;2022-07-23T06:53:46;3.45;;;2.20;;
51848;SDS011;38952;51.090;-1.832;2022-07-23T06:56:12;2.70;;;1.58;;
51848;SDS011;38952;51.090;-1.832;2022-07-23T06:58:37;8.15;;;2.20;;
51848;SDS011;38952;51.090;-1.832;2022-07-23T07:01:03;6.18;;;2.35;;
51848;SDS011;38952;51.090;-1.832;2022-07-23T07:03:28;6.00;;;1.65;;
51848;SDS011;38952;51.090;-1.832;2022-07-23T07:05:54;5.63;;;2.22;;
51848;SDS011;38952;51.090;-1.832;2022-07-23T07:08:21;6.05;;;2.80;;
51848;SDS011;38952;51.090;-1.832;2022-07-23T07:10:46;7.90;;;2.00;;
51848;SDS011;38952;51.090;-1.832;2022-07-23T07:13:12;16.55;;;2.08;;
51848;SDS011;38952;51.090;-1.832;2022-07-23T07:15:37;9.90;;;2.60;;
51848;SDS011;38952;51.090;-1.832;2022-07-23T07:18:03;7.10;;;2.22;;
51848;SDS011;38952;51.090;-1.832;2022-07-23T07:20:28;8.25;;;2.10;;
51848;SDS011;38952;51.090;-1.832;2022-07-23T07:22:54;4.50;;;2.35;;
51848;SDS011;38952;51.090;-1.832;2022-07-23T07:25:19;5.82;;;2.80;;
51848;SDS011;38952;51.090;-1.832;2022-07-23T07:27:45;4.22;;;2.45;;
51848;SDS011;38952;51.090;-1.832;2022-07-23T07:30:10;3.42;;;1.90;;
51848;SDS011;38952;51.090;-1.832;2022-07-23T07:32:37;8.63;;;2.20;;
51848;SDS011;38952;51.090;-1.832;2022-07-23T07:35:03;9.73;;;2.35;;
51848;SDS011;38952;51.090;-1.832;2022-07-23T07:37:29;2.63;;;2.08;;
51848;SDS011;38952;51.090;-1.832;2022-07-23T07:39:55;6.40;;;2.17;;
51848;SDS011;38952;51.090;-1.832;2022-07-23T07:42:20;5.18;;;2.03;;
51848;SDS011;38952;51.090;-1.832;2022-07-23T07:44:46;4.35;;;1.83;;
51848;SDS011;38952;51.090;-1.832;2022-07-23T07:47:11;4.05;;;2.10;;
51848;SDS011;38952;51.090;-1.832;2022-07-23T07:49:37;3.85;;;1.63;;
51848;SDS011;38952;51.090;-1.832;2022-07-23T07:52:02;1.40;;;1.30;;
51848;SDS011;38952;51.090;-1.832;2022-07-23T07:54:28;1.48;;;1.35;;
51848;SDS011;38952;51.090;-1.832;2022-07-23T07:56:53;5.18;;;1.80;;
51848;SDS011;38952;51.090;-1.832;2022-07-23T07:59:19;10.45;;;1.75;;
51848;SDS011;38952;51.090;-1.832;2022-07-23T08:01:52;4.03;;;1.95;;
51848;SDS011;38952;51.090;-1.832;2022-07-23T08:04:17;2.35;;;1.30;;
51848;SDS011;38952;51.090;-1.832;2022-07-23T08:06:43;2.25;;;1.30;;
51848;SDS011;38952;51.090;-1.832;2022-07-23T08:09:09;3.58;;;1.50;;
51848;SDS011;38952;51.090;-1.832;2022-07-23T08:11:34;2.50;;;1.60;;
51848;SDS011;38952;51.090;-1.832;2022-07-23T08:14:00;1.30;;;1.00;;
51848;SDS011;38952;51.090;-1.832;2022-07-23T08:16:28;1.42;;;0.80;;
51848;SDS011;38952;51.090;-1.832;2022-07-23T08:18:56;3.97;;;1.15;;
51848;SDS011;38952;51.090;-1.832;2022-07-23T08:21:22;3.65;;;1.10;;
51848;SDS011;38952;51.090;-1.832;2022-07-23T08:23:48;2.08;;;0.90;;
51848;SDS011;38952;51.090;-1.832;2022-07-23T08:26:16;1.98;;;1.10;;
51848;SDS011;38952;51.090;-1.832;2022-07-23T08:28:41;3.17;;;0.82;;
51848;SDS011;38952;51.090;-1.832;2022-07-23T08:31:09;2.47;;;1.13;;
51848;SDS011;38952;51.090;-1.832;2022-07-23T08:33:36;1.85;;;1.02;;
51848;SDS011;38952;51.090;-1.832;2022-07-23T08:36:02;0.90;;;0.63;;
51848;SDS011;38952;51.090;-1.832;2022-07-23T08:38:29;7.70;;;0.80;;
51848;SDS011;38952;51.090;-1.832;2022-07-23T08:40:55;1.15;;;0.60;;
51848;SDS011;38952;51.090;-1.832;2022-07-23T08:43:43;2.88;;;0.88;;
51848;SDS011;38952;51.090;-1.832;2022-07-23T08:46:09;0.55;;;0.45;;
51848;SDS011;38952;51.090;-1.832;2022-07-23T08:48:35;1.27;;;0.90;;
51848;SDS011;38952;51.090;-1.832;2022-07-23T08:51:04;0.88;;;0.70;;
51848;SDS011;38952;51.090;-1.832;2022-07-23T08:53:31;0.98;;;0.68;;
51848;SDS011;38952;51.090;-1.832;2022-07-23T08:55:59;2.92;;;0.80;;
51848;SDS011;38952;51.090;-1.832;2022-07-23T08:58:29;0.70;;;0.50;;
51848;SDS011;38952;51.090;-1.832;2022-07-23T09:00:55;1.02;;;0.80;;
51848;SDS011;38952;51.090;-1.832;2022-07-23T09:03:28;1.38;;;0.63;;
51848;SDS011;38952;51.090;-1.832;2022-07-23T09:05:55;0.60;;;0.60;;
51848;SDS011;38952;51.090;-1.832;2022-07-23T09:08:26;3.17;;;0.65;;
51848;SDS011;38952;51.090;-1.832;2022-07-23T09:11:01;2.33;;;0.75;;
51848;SDS011;38952;51.090;-1.832;2022-07-23T09:13:36;3.25;;;0.40;;
51848;SDS011;38952;51.090;-1.832;2022-07-23T09:18:43;0.95;;;0.43;;
51848;SDS011;38952;51.090;-1.832;2022-07-23T09:21:20;0.80;;;0.30;;
51848;SDS011;38952;51.090;-1.832;2022-07-23T09:23:55;1.48;;;0.45;;
51848;SDS011;38952;51.090;-1.832;2022-07-23T09:26:46;1.30;;;0.47;;
51848;SDS011;38952;51.090;-1.832;2022-07-23T09:29:17;0.65;;;0.47;;
51848;SDS011;38952;51.090;-1.832;2022-07-23T09:31:50;1.67;;;0.77;;
51848;SDS011;38952;51.090;-1.832;2022-07-23T09:34:20;0.50;;;0.50;;
51848;SDS011;38952;51.090;-1.832;2022-07-23T09:36:58;0.47;;;0.45;;
51848;SDS011;38952;51.090;-1.832;2022-07-23T09:39:35;1.15;;;0.70;;
51848;SDS011;38952;51.090;-1.832;2022-07-23T09:44:49;0.47;;;0.47;;
51848;SDS011;38952;51.090;-1.832;2022-07-23T09:47:16;0.55;;;0.40;;
51848;SDS011;38952;51.090;-1.832;2022-07-23T09:52:45;1.17;;;0.57;;
51848;SDS011;38952;51.090;-1.832;2022-07-23T09:55:13;0.40;;;0.40;;
51848;SDS011;38952;51.090;-1.832;2022-07-23T09:57:40;1.08;;;0.57;;
51848;SDS011;38952;51.090;-1.832;2022-07-23T10:00:08;0.70;;;0.50;;
51848;SDS011;38952;51.090;-1.832;2022-07-23T10:02:35;3.15;;;0.60;;
51848;SDS011;38952;51.090;-1.832;2022-07-23T10:05:02;1.08;;;0.60;;
51848;SDS011;38952;51.090;-1.832;2022-07-23T10:07:28;0.55;;;0.47;;
51848;SDS011;38952;51.090;-1.832;2022-07-23T10:09:58;0.52;;;0.43;;
51848;SDS011;38952;51.090;-1.832;2022-07-23T10:12:25;1.02;;;0.60;;
51848;SDS011;38952;51.090;-1.832;2022-07-23T10:14:58;2.17;;;0.63;;
51848;SDS011;38952;51.090;-1.832;2022-07-23T10:17:27;1.75;;;0.60;;
51848;SDS011;38952;51.090;-1.832;2022-07-23T10:19:54;0.60;;;0.50;;
51848;SDS011;38952;51.090;-1.832;2022-07-23T10:22:20;2.25;;;0.63;;
51848;SDS011;38952;51.090;-1.832;2022-07-23T10:24:53;1.70;;;0.70;;
51848;SDS011;38952;51.090;-1.832;2022-07-23T10:30:12;3.13;;;0.50;;
51848;SDS011;38952;51.090;-1.832;2022-07-23T10:38:29;1.10;;;0.40;;
51848;SDS011;38952;51.090;-1.832;2022-07-23T10:41:02;1.67;;;0.70;;
51848;SDS011;38952;51.090;-1.832;2022-07-23T10:43:29;1.58;;;0.60;;
51848;SDS011;38952;51.090;-1.832;2022-07-23T10:45:56;1.10;;;0.70;;
51848;SDS011;38952;51.090;-1.832;2022-07-23T10:48:41;0.73;;;0.30;;
51848;SDS011;38952;51.090;-1.832;2022-07-23T10:51:08;0.73;;;0.43;;
51848;SDS011;38952;51.090;-1.832;2022-07-23T10:59:19;1.35;;;0.50;;
51848;SDS011;38952;51.090;-1.832;2022-07-23T11:01:45;1.30;;;0.77;;
51848;SDS011;38952;51.090;-1.832;2022-07-23T11:04:11;4.35;;;0.60;;
51848;SDS011;38952;51.090;-1.832;2022-07-23T11:15:09;0.60;;;0.45;;
51848;SDS011;38952;51.090;-1.832;2022-07-23T11:17:39;1.95;;;0.75;;
51848;SDS011;38952;51.090;-1.832;2022-07-23T11:20:25;1.00;;;0.65;;
51848;SDS011;38952;51.090;-1.832;2022-07-23T11:22:52;0.80;;;0.50;;
51848;SDS011;38952;51.090;-1.832;2022-07-23T11:27:46;1.20;;;0.80;;
51848;SDS011;38952;51.090;-1.832;2022-07-23T11:35:37;2.00;;;0.40;;
51848;SDS011;38952;51.090;-1.832;2022-07-23T11:38:18;1.13;;;0.60;;
51848;SDS011;38952;51.090;-1.832;2022-07-23T11:40:50;0.60;;;0.55;;
51848;SDS011;38952;51.090;-1.832;2022-07-23T11:43:17;1.77;;;0.60;;
51848;SDS011;38952;51.090;-1.832;2022-07-23T11:45:44;1.27;;;0.40;;
51848;SDS011;38952;51.090;-1.832;2022-07-23T11:48:16;1.52;;;0.63;;
51848;SDS011;38952;51.090;-1.832;2022-07-23T11:50:46;1.10;;;0.50;;
51848;SDS011;38952;51.090;-1.832;2022-07-23T11:53:12;3.15;;;0.77;;
51848;SDS011;38952;51.090;-1.832;2022-07-23T11:55:38;0.35;;;0.35;;
51848;SDS011;38952;51.090;-1.832;2022-07-23T11:58:04;1.38;;;0.43;;
51848;SDS011;38952;51.090;-1.832;2022-07-23T12:00:30;0.40;;;0.40;;
51848;SDS011;38952;51.090;-1.832;2022-07-23T12:02:57;0.60;;;0.60;;
51848;SDS011;38952;51.090;-1.832;2022-07-23T12:05:31;2.40;;;0.68;;
51848;SDS011;38952;51.090;-1.832;2022-07-23T12:07:59;0.57;;;0.55;;
51848;SDS011;38952;51.090;-1.832;2022-07-23T12:10:29;0.40;;;0.40;;
51848;SDS011;38952;51.090;-1.832;2022-07-23T12:12:59;1.73;;;0.50;;
51848;SDS011;38952;51.090;-1.832;2022-07-23T12:15:28;1.15;;;0.60;;
51848;SDS011;38952;51.090;-1.832;2022-07-23T12:17:58;1.95;;;0.60;;
51848;SDS011;38952;51.090;-1.832;2022-07-23T12:20:30;2.35;;;0.73;;
51848;SDS011;38952;51.090;-1.832;2022-07-23T12:22:59;1.52;;;0.68;;
51848;SDS011;38952;51.090;-1.832;2022-07-23T12:25:31;2.00;;;0.60;;
51848;SDS011;38952;51.090;-1.832;2022-07-23T12:28:32;1.45;;;0.70;;
51848;SDS011;38952;51.090;-1.832;2022-07-23T12:30:55;1.23;;;0.90;;
51848;SDS011;38952;51.090;-1.832;2022-07-23T12:33:28;0.40;;;0.40;;
51848;SDS011;38952;51.090;-1.832;2022-07-23T12:36:02;3.60;;;1.00;;
51848;SDS011;38952;51.090;-1.832;2022-07-23T12:38:36;0.93;;;0.50;;
51848;SDS011;38952;51.090;-1.832;2022-07-23T12:41:06;3.75;;;0.70;;
51848;SDS011;38952;51.090;-1.832;2022-07-23T12:43:33;1.42;;;0.60;;
51848;SDS011;38952;51.090;-1.832;2022-07-23T12:46:04;2.08;;;0.60;;
51848;SDS011;38952;51.090;-1.832;2022-07-23T12:48:38;1.67;;;0.60;;
51848;SDS011;38952;51.090;-1.832;2022-07-23T12:51:15;3.42;;;0.85;;
51848;SDS011;38952;51.090;-1.832;2022-07-23T12:53:44;2.00;;;0.80;;
51848;SDS011;38952;51.090;-1.832;2022-07-23T12:56:14;4.40;;;0.90;;
51848;SDS011;38952;51.090;-1.832;2022-07-23T12:58:47;1.27;;;0.68;;
51848;SDS011;38952;51.090;-1.832;2022-07-23T13:03:53;1.27;;;0.60;;
51848;SDS011;38952;51.090;-1.832;2022-07-23T13:06:46;2.83;;;0.80;;
51848;SDS011;38952;51.090;-1.832;2022-07-23T13:09:24;1.85;;;0.70;;
51848;SDS011;38952;51.090;-1.832;2022-07-23T13:11:52;3.22;;;0.80;;
51848;SDS011;38952;51.090;-1.832;2022-07-23T13:14:19;3.53;;;0.60;;
51848;SDS011;38952;51.090;-1.832;2022-07-23T13:16:46;0.80;;;0.70;;
51848;SDS011;38952;51.090;-1.832;2022-07-23T13:19:13;2.22;;;0.85;;
51848;SDS011;38952;51.090;-1.832;2022-07-23T13:21:39;2.55;;;1.00;;
51848;SDS011;38952;51.090;-1.832;2022-07-23T13:24:05;0.68;;;0.60;;
51848;SDS011;38952;51.090;-1.832;2022-07-23T13:26:32;0.65;;;0.57;;
51848;SDS011;38952;51.090;-1.832;2022-07-23T13:28:57;2.08;;;0.93;;
51848;SDS011;38952;51.090;-1.832;2022-07-23T13:31:23;2.92;;;0.73;;
51848;SDS011;38952;51.090;-1.832;2022-07-23T13:33:49;1.75;;;0.82;;
51848;SDS011;38952;51.090;-1.832;2022-07-23T13:36:14;1.83;;;0.90;;
51848;SDS011;38952;51.090;-1.832;2022-07-23T13:38:40;2.95;;;1.15;;
51848;SDS011;38952;51.090;-1.832;2022-07-23T13:41:06;2.00;;;0.95;;
51848;SDS011;38952;51.090;-1.832;2022-07-23T13:43:32;1.27;;;0.85;;
51848;SDS011;38952;51.090;-1.832;2022-07-23T13:45:57;0.82;;;0.80;;
51848;SDS011;38952;51.090;-1.832;2022-07-23T13:48:23;3.95;;;0.77;;
51848;SDS011;38952;51.090;-1.832;2022-07-23T13:50:49;1.67;;;0.95;;
51848;SDS011;38952;51.090;-1.832;2022-07-23T13:53:17;1.63;;;1.02;;
51848;SDS011;38952;51.090;-1.832;2022-07-23T13:55:45;4.13;;;1.00;;
51848;SDS011;38952;51.090;-1.832;2022-07-23T13:58:11;3.58;;;1.17;;
51848;SDS011;38952;51.090;-1.832;2022-07-23T14:00:39;1.13;;;1.02;;
51848;SDS011;38952;51.090;-1.832;2022-07-23T14:03:06;2.10;;;1.20;;
51848;SDS011;38952;51.090;-1.832;2022-07-23T14:05:32;1.40;;;0.98;;
51848;SDS011;38952;51.090;-1.832;2022-07-23T14:07:57;1.02;;;0.70;;
51848;SDS011;38952;51.090;-1.832;2022-07-23T14:10:23;1.42;;;0.93;;
51848;SDS011;38952;51.090;-1.832;2022-07-23T14:12:50;6.82;;;0.77;;
51848;SDS011;38952;51.090;-1.832;2022-07-23T14:15:17;2.78;;;1.00;;
51848;SDS011;38952;51.090;-1.832;2022-07-23T14:17:44;2.85;;;1.27;;
51848;SDS011;38952;51.090;-1.832;2022-07-23T14:20:11;3.00;;;1.10;;
51848;SDS011;38952;51.090;-1.832;2022-07-23T14:22:38;1.80;;;0.90;;
51848;SDS011;38952;51.090;-1.832;2022-07-23T14:25:05;1.85;;;1.00;;
51848;SDS011;38952;51.090;-1.832;2022-07-23T14:27:31;2.20;;;1.17;;
51848;SDS011;38952;51.090;-1.832;2022-07-23T14:29:58;2.45;;;0.90;;
51848;SDS011;38952;51.090;-1.832;2022-07-23T14:32:24;1.40;;;0.80;;
51848;SDS011;38952;51.090;-1.832;2022-07-23T14:34:49;1.00;;;0.90;;
51848;SDS011;38952;51.090;-1.832;2022-07-23T14:37:15;2.53;;;0.93;;
51848;SDS011;38952;51.090;-1.832;2022-07-23T14:39:41;2.22;;;0.93;;
51848;SDS011;38952;51.090;-1.832;2022-07-23T14:42:08;4.70;;;1.08;;
51848;SDS011;38952;51.090;-1.832;2022-07-23T14:44:34;1.80;;;1.10;;
51848;SDS011;38952;51.090;-1.832;2022-07-23T14:47:00;2.67;;;1.20;;
51848;SDS011;38952;51.090;-1.832;2022-07-23T14:49:26;1.83;;;1.13;;
51848;SDS011;38952;51.090;-1.832;2022-07-23T14:51:52;9.82;;;1.13;;
51848;SDS011;38952;51.090;-1.832;2022-07-23T14:54:18;2.05;;;1.13;;
51848;SDS011;38952;51.090;-1.832;2022-07-23T14:56:44;3.88;;;1.10;;
51848;SDS011;38952;51.090;-1.832;2022-07-23T14:59:11;2.05;;;1.10;;
51848;SDS011;38952;51.090;-1.832;2022-07-23T15:01:37;2.42;;;1.30;;
51848;SDS011;38952;51.090;-1.832;2022-07-23T15:04:03;1.75;;;1.17;;
51848;SDS011;38952;51.090;-1.832;2022-07-23T15:06:30;4.00;;;1.13;;
51848;SDS011;38952;51.090;-1.832;2022-07-23T15:08:55;4.10;;;1.40;;
51848;SDS011;38952;51.090;-1.832;2022-07-23T15:11:21;6.20;;;1.40;;
51848;SDS011;38952;51.090;-1.832;2022-07-23T15:13:46;3.50;;;1.40;;
51848;SDS011;38952;51.090;-1.832;2022-07-23T15:16:12;6.80;;;1.88;;